Time;durP1;ratioP1;P1;durP2;ratioP2;P2;SDS_P1;SDS_P2;PMS_P1;PMS_P2;Temp;Humidity;BMP_temperature;BMP_pressure;BME280_temperature;BME280_humidity;BME280_pressure;Samples;Min_cycle;Max_cycle;Signal;HPM_P1;HPM_P2
2023/02/19 00:01:27;;;;;;;6.05;3.38;;;9.00;98.00;;;;;;5014336;28;20492;-67
2023/02/19 00:03:54;;;;;;;;;;;9.00;98.00;;;;;;5007493;28;20092;-66
2023/02/19 00:06:24;;;;;;;6.00;3.63;;;8.90;98.00;;;;;;5014541;28;20310;-65
2023/02/19 00:08:50;;;;;;;7.32;3.55;;;8.90;98.00;;;;;;4997661;28;20087;-66
2023/02/19 00:11:18;;;;;;;6.20;3.58;;;8.80;98.00;;;;;;5006593;28;20030;-66
2023/02/19 00:13:47;;;;;;;5.43;3.08;;;8.80;98.00;;;;;;4996700;28;20030;-65
2023/02/19 00:16:16;;;;;;;7.07;3.75;;;8.90;98.00;;;;;;5003095;28;20338;-66
2023/02/19 00:18:42;;;;;;;9.60;3.72;;;8.90;98.00;;;;;;5017647;28;20018;-66
2023/02/19 00:21:08;;;;;;;4.43;2.75;;;8.90;98.00;;;;;;5014005;28;20049;-66
2023/02/19 00:23:34;;;;;;;6.35;3.30;;;8.90;98.00;;;;;;5019811;28;20029;-66
2023/02/19 00:26:06;;;;;;;6.13;3.30;;;8.90;98.00;;;;;;5026501;28;20026;-66
2023/02/19 00:28:32;;;;;;;7.65;4.55;;;8.90;98.00;;;;;;5014420;28;20042;-66
2023/02/19 00:31:11;;;;;;;7.10;3.60;;;8.80;98.00;;;;;;5012539;28;20037;-65
2023/02/19 00:33:37;;;;;;;7.28;3.88;;;8.80;98.00;;;;;;5015167;28;20022;-66
2023/02/19 00:36:04;;;;;;;6.80;3.85;;;8.80;98.00;;;;;;5011511;28;20108;-66
2023/02/19 00:38:31;;;;;;;9.68;4.28;;;8.80;98.00;;;;;;5011776;28;20365;-66
2023/02/19 00:41:00;;;;;;;7.43;4.10;;;8.90;98.00;;;;;;5011353;28;21857;-66
2023/02/19 00:43:26;;;;;;;5.45;3.13;;;8.90;98.00;;;;;;5014389;28;20033;-65
2023/02/19 00:45:52;;;;;;;5.88;3.35;;;8.90;98.00;;;;;;5011908;28;20071;-65
2023/02/19 00:48:18;;;;;;;6.32;3.00;;;8.90;98.00;;;;;;5014620;28;20037;-66
2023/02/19 00:50:44;;;;;;;7.03;3.60;;;8.90;98.00;;;;;;5019041;28;20394;-65
2023/02/19 00:53:10;;;;;;;5.75;3.10;;;8.90;98.00;;;;;;5014318;28;20060;-64
2023/02/19 00:55:36;;;;;;;6.50;3.80;;;9.00;98.00;;;;;;5010676;28;20050;-65
2023/02/19 00:58:01;;;;;;;6.35;3.20;;;9.00;98.00;;;;;;5012774;28;20022;-65
2023/02/19 01:00:27;;;;;;;8.13;2.90;;;9.00;98.00;;;;;;5008051;28;20031;-65
2023/02/19 01:02:53;;;;;;;6.25;3.50;;;9.00;98.00;;;;;;5011036;28;20031;-65
2023/02/19 01:05:19;;;;;;;4.75;2.70;;;9.00;98.00;;;;;;5004704;28;20033;-65
2023/02/19 01:07:44;;;;;;;6.03;3.10;;;8.90;98.00;;;;;;5014165;28;20117;-66
2023/02/19 01:10:10;;;;;;;6.55;3.33;;;8.90;98.00;;;;;;5014525;28;20038;-66
2023/02/19 01:12:36;;;;;;;6.30;3.00;;;8.90;98.00;;;;;;5014332;28;20029;-66
2023/02/19 01:15:02;;;;;;;6.10;3.05;;;8.80;98.00;;;;;;5012466;28;20040;-66
2023/02/19 01:17:28;;;;;;;6.82;2.83;;;8.80;98.00;;;;;;5025731;28;20030;-66
2023/02/19 01:19:53;;;;;;;6.90;3.30;;;8.80;98.00;;;;;;5021033;28;20088;-66
2023/02/19 01:22:20;;;;;;;6.32;3.38;;;8.80;98.00;;;;;;5019131;28;20034;-66
2023/02/19 01:24:46;;;;;;;6.05;3.40;;;8.80;98.00;;;;;;5021620;28;20415;-64
2023/02/19 01:27:11;;;;;;;6.15;3.22;;;8.80;98.00;;;;;;5021341;28;20044;-66
2023/02/19 01:29:37;;;;;;;4.97;2.83;;;8.80;98.00;;;;;;5011652;28;20076;-66
2023/02/19 01:32:03;;;;;;;5.72;2.78;;;8.80;98.00;;;;;;5025226;28;20053;-66
2023/02/19 01:34:32;;;;;;;5.68;2.92;;;8.80;98.00;;;;;;5009766;28;20096;-66
2023/02/19 01:36:58;;;;;;;4.70;2.60;;;8.80;98.00;;;;;;5016737;28;20026;-64
2023/02/19 01:39:24;;;;;;;5.25;2.90;;;8.90;98.00;;;;;;5018421;28;20119;-67
2023/02/19 01:41:49;;;;;;;5.65;2.80;;;8.80;98.00;;;;;;5036244;28;20053;-67
2023/02/19 01:44:17;;;;;;;6.35;3.00;;;8.80;98.00;;;;;;5027033;28;20029;-67
2023/02/19 01:46:45;;;;;;;6.32;3.25;;;8.80;98.00;;;;;;5016228;28;20053;-66
2023/02/19 01:49:30;;;;;;;5.95;3.20;;;8.90;98.00;;;;;;5017734;28;20030;-67
2023/02/19 01:52:29;;;;;;;5.95;3.08;;;8.90;98.00;;;;;;5012501;28;20057;-67
2023/02/19 01:54:56;;;;;;;6.22;2.63;;;8.80;98.00;;;;;;5014708;28;20050;-66
2023/02/19 01:57:25;;;;;;;4.88;2.97;;;8.80;98.00;;;;;;5017192;28;20022;-67
2023/02/19 01:59:56;;;;;;;6.10;3.15;;;8.90;98.00;;;;;;5015339;28;20022;-65
2023/02/19 02:02:27;;;;;;;5.10;2.92;;;8.80;98.00;;;;;;5049214;28;20022;-65
2023/02/19 02:04:54;;;;;;;5.80;3.08;;;8.90;98.00;;;;;;5015413;28;20327;-65
2023/02/19 02:10:25;;;;;;;;;;;8.90;98.00;;;;;;5033121;28;20125;-65
2023/02/19 02:12:56;;;;;;;5.40;2.60;;;8.90;98.00;;;;;;5036421;28;19999;-65
2023/02/19 02:15:28;;;;;;;6.15;2.60;;;8.90;98.00;;;;;;5017083;28;20080;-66
2023/02/19 02:18:30;;;;;;;5.35;2.88;;;8.90;98.00;;;;;;5016081;28;20030;-66
2023/02/19 02:21:33;;;;;;;6.43;2.97;;;8.90;98.00;;;;;;5008850;28;20045;-65
2023/02/19 02:24:17;;;;;;;5.40;2.80;;;8.80;98.00;;;;;;5017701;28;20025;-66
2023/02/19 02:27:34;;;;;;;5.07;2.95;;;8.80;98.00;;;;;;5020037;28;20041;-65
2023/02/19 02:30:28;;;;;;;5.30;2.40;;;8.90;98.00;;;;;;5022763;28;20056;-65
2023/02/19 02:33:35;;;;;;;4.90;2.28;;;8.90;98.00;;;;;;5013875;28;20339;-66
2023/02/19 02:36:13;;;;;;;4.53;2.20;;;9.00;98.00;;;;;;5012437;28;20038;-65
2023/02/19 02:38:42;;;;;;;4.35;2.30;;;9.00;97.90;;;;;;5025672;28;20026;-65
2023/02/19 02:41:12;;;;;;;4.40;2.67;;;9.00;97.80;;;;;;5014790;28;20025;-66
2023/02/19 02:43:38;;;;;;;4.25;2.30;;;9.00;97.80;;;;;;5015480;28;20070;-66
2023/02/19 02:46:05;;;;;;;4.18;2.30;;;8.90;97.80;;;;;;5015579;28;20034;-66
2023/02/19 02:48:52;;;;;;;4.15;1.80;;;8.90;97.90;;;;;;5017994;28;20030;-65
2023/02/19 02:51:39;;;;;;;4.97;2.47;;;9.00;97.80;;;;;;5003490;28;20099;-66
2023/02/19 02:56:56;;;;;;;4.00;2.25;;;8.90;97.80;;;;;;5018689;28;20049;-66
2023/02/19 02:59:26;;;;;;;4.13;2.35;;;8.90;97.80;;;;;;5013312;28;20018;-66
2023/02/19 03:02:12;;;;;;;7.53;2.42;;;8.90;98.00;;;;;;5006785;28;20108;-66
2023/02/19 03:07:40;;;;;;;5.22;2.33;;;8.90;98.00;;;;;;5015008;28;20037;-65
2023/02/19 03:10:14;;;;;;;4.18;2.30;;;8.90;98.00;;;;;;5018998;28;20022;-66
2023/02/19 03:21:10;;;;;;;4.32;2.20;;;8.80;98.00;;;;;;5010509;28;19996;-66
2023/02/19 03:26:21;;;;;;;4.45;2.25;;;8.70;98.00;;;;;;5027568;28;20083;-66
2023/02/19 03:31:38;;;;;;;5.30;2.05;;;8.70;98.00;;;;;;5012502;28;20085;-65
2023/02/19 03:34:10;;;;;;;5.45;2.50;;;8.70;98.00;;;;;;5012446;28;20084;-66
2023/02/19 03:36:45;;;;;;;5.32;2.28;;;8.70;98.00;;;;;;5015287;28;20037;-66
2023/02/19 03:39:14;;;;;;;4.45;2.30;;;8.70;98.00;;;;;;5018337;28;20026;-66
2023/02/19 03:41:59;;;;;;;4.38;2.47;;;8.70;98.00;;;;;;5010078;28;20041;-66
2023/02/19 03:44:27;;;;;;;;;;;8.70;98.00;;;;;;5012788;28;20017;-64
2023/02/19 03:47:02;;;;;;;5.13;2.30;;;8.70;98.00;;;;;;5016865;28;19989;-64
2023/02/19 03:49:48;;;;;;;4.68;2.08;;;8.70;98.00;;;;;;5016462;28;20049;-65
2023/02/19 03:52:16;;;;;;;4.15;2.30;;;8.70;98.00;;;;;;5011144;28;20030;-65
2023/02/19 03:54:57;;;;;;;3.78;2.03;;;8.60;98.00;;;;;;5016359;28;20330;-67
2023/02/19 03:57:48;;;;;;;3.90;2.03;;;8.70;98.00;;;;;;5016679;28;20022;-67
2023/02/19 04:00:19;;;;;;;4.35;2.15;;;8.70;98.00;;;;;;5014872;28;20026;-67
2023/02/19 04:02:47;;;;;;;5.47;2.10;;;8.70;98.00;;;;;;5014473;28;20105;-66
2023/02/19 04:05:21;;;;;;;4.03;2.08;;;8.70;98.00;;;;;;5009303;28;20084;-66
2023/02/19 04:07:54;;;;;;;4.63;2.30;;;8.60;98.00;;;;;;5002149;28;20109;-65
2023/02/19 04:10:21;;;;;;;4.13;2.00;;;8.60;98.00;;;;;;5015940;28;20056;-65
2023/02/19 04:12:56;;;;;;;3.42;1.83;;;8.70;98.00;;;;;;4997191;28;20030;-65
2023/02/19 04:15:27;;;;;;;4.05;2.20;;;8.60;98.00;;;;;;5010045;28;20026;-65
2023/02/19 04:18:01;;;;;;;5.53;2.35;;;8.60;98.00;;;;;;5011299;28;20057;-66
2023/02/19 04:20:31;;;;;;;4.45;2.40;;;8.60;98.00;;;;;;5009158;28;20032;-66
2023/02/19 04:23:00;;;;;;;6.18;2.42;;;8.60;98.00;;;;;;5016627;28;20044;-66
2023/02/19 04:25:27;;;;;;;4.53;2.40;;;8.50;98.00;;;;;;5012687;28;20037;-66
2023/02/19 04:27:53;;;;;;;4.63;2.28;;;8.50;98.00;;;;;;5021356;28;20026;-65
2023/02/19 04:30:20;;;;;;;4.32;2.22;;;8.50;98.00;;;;;;5019734;28;20071;-66
2023/02/19 04:32:45;;;;;;;4.10;2.25;;;8.60;98.00;;;;;;5027873;28;20308;-65
2023/02/19 04:35:11;;;;;;;4.90;2.50;;;8.60;98.00;;;;;;5027478;28;20076;-66
2023/02/19 04:37:36;;;;;;;4.50;2.40;;;8.50;98.00;;;;;;5010089;28;20022;-66
2023/02/19 04:40:02;;;;;;;4.47;2.58;;;8.50;98.00;;;;;;5013953;28;20109;-66
2023/02/19 04:42:28;;;;;;;4.05;2.05;;;8.50;98.00;;;;;;5012581;28;20053;-66
2023/02/19 04:44:53;;;;;;;3.92;2.13;;;8.50;98.00;;;;;;5028034;28;20036;-65
2023/02/19 04:47:19;;;;;;;4.80;2.35;;;8.50;98.00;;;;;;5017600;28;20034;-66
2023/02/19 04:49:45;;;;;;;4.57;2.50;;;8.50;98.00;;;;;;5010053;28;20085;-65
2023/02/19 04:52:10;;;;;;;6.05;2.30;;;8.50;98.00;;;;;;5024257;28;20327;-66
2023/02/19 04:54:36;;;;;;;4.20;2.40;;;8.50;98.00;;;;;;5020524;28;20081;-65
2023/02/19 04:57:02;;;;;;;3.53;2.03;;;8.40;98.00;;;;;;5020893;28;20116;-65
2023/02/19 04:59:27;;;;;;;4.97;2.55;;;8.40;98.00;;;;;;5003411;28;20026;-66
2023/02/19 05:01:53;;;;;;;5.25;2.90;;;8.30;98.00;;;;;;5010013;28;20022;-65
2023/02/19 05:04:19;;;;;;;5.38;2.70;;;8.30;98.00;;;;;;5015048;28;20069;-65
2023/02/19 05:06:47;;;;;;;5.65;2.90;;;8.30;98.00;;;;;;5004108;28;20068;-65
2023/02/19 05:09:12;;;;;;;5.93;3.22;;;8.20;98.00;;;;;;5015092;28;20030;-66
2023/02/19 05:11:38;;;;;;;5.20;3.00;;;8.10;97.90;;;;;;5015079;28;20481;-65
2023/02/19 05:14:04;;;;;;;5.13;3.25;;;8.00;97.70;;;;;;5021174;28;20052;-65
2023/02/19 05:16:30;;;;;;;4.55;2.97;;;7.90;96.70;;;;;;5004707;28;20390;-64
2023/02/19 05:18:56;;;;;;;5.10;3.10;;;7.80;95.30;;;;;;5012413;28;20018;-65
2023/02/19 05:21:21;;;;;;;6.95;3.53;;;7.70;94.60;;;;;;5014948;28;20160;-65
2023/02/19 05:23:47;;;;;;;6.05;3.67;;;7.60;93.60;;;;;;5010942;28;20109;-65
2023/02/19 05:26:19;;;;;;;5.03;3.28;;;7.50;92.90;;;;;;5009367;28;20478;-65
2023/02/19 05:28:46;;;;;;;6.47;3.35;;;7.50;93.90;;;;;;5023626;28;20022;-65
2023/02/19 05:31:12;;;;;;;5.65;3.55;;;7.50;94.20;;;;;;5012605;28;20156;-65
2023/02/19 05:33:40;;;;;;;7.28;3.30;;;7.50;95.00;;;;;;5009890;28;20030;-65
2023/02/19 05:36:10;;;;;;;5.68;3.30;;;7.60;95.90;;;;;;5020919;28;20032;-66
2023/02/19 05:38:37;;;;;;;6.47;3.20;;;7.70;96.10;;;;;;5014595;28;20109;-64
2023/02/19 05:41:24;;;;;;;4.80;2.80;;;7.70;96.40;;;;;;5023540;28;20021;-66
2023/02/19 05:43:50;;;;;;;4.90;2.97;;;7.80;97.10;;;;;;5034724;28;20097;-66
2023/02/19 05:46:18;;;;;;;5.05;2.90;;;7.80;97.30;;;;;;5020020;28;20053;-65
2023/02/19 05:48:44;;;;;;;4.65;2.90;;;7.80;97.50;;;;;;5011840;28;20030;-66
2023/02/19 05:51:12;;;;;;;6.07;2.95;;;7.80;97.60;;;;;;5012383;28;20060;-65
2023/02/19 05:53:39;;;;;;;4.95;3.00;;;7.80;97.70;;;;;;5021350;28;20026;-66
2023/02/19 05:56:15;;;;;;;4.70;2.90;;;7.80;97.70;;;;;;5022391;28;20038;-65
2023/02/19 05:58:41;;;;;;;4.72;2.85;;;7.90;97.90;;;;;;5011457;28;20054;-65
2023/02/19 06:01:15;;;;;;;4.03;2.40;;;7.90;97.90;;;;;;5014775;28;20072;-65
2023/02/19 06:03:41;;;;;;;4.72;2.88;;;7.80;97.70;;;;;;5027668;28;20386;-66
2023/02/19 06:06:08;;;;;;;4.47;2.50;;;7.80;98.00;;;;;;5033268;28;20430;-65
2023/02/19 06:08:34;;;;;;;4.45;2.60;;;7.80;98.00;;;;;;5003458;28;20080;-66
2023/02/19 06:10:59;;;;;;;7.90;2.78;;;7.80;97.90;;;;;;5012961;28;20330;-65
2023/02/19 06:13:25;;;;;;;4.88;2.70;;;7.80;98.00;;;;;;5014435;28;20054;-65
2023/02/19 06:15:50;;;;;;;4.53;2.80;;;7.80;98.00;;;;;;5015907;28;20068;-65
2023/02/19 06:18:16;;;;;;;4.47;2.47;;;7.80;97.90;;;;;;5008540;28;20025;-66
2023/02/19 06:20:42;;;;;;;5.45;2.08;;;7.80;98.00;;;;;;4998357;28;20053;-65
2023/02/19 06:23:07;;;;;;;4.90;2.28;;;7.80;98.00;;;;;;5018831;28;20018;-65
2023/02/19 06:25:33;;;;;;;4.00;2.20;;;7.80;98.00;;;;;;5035342;28;20423;-66
2023/02/19 06:27:58;;;;;;;5.18;2.55;;;7.80;98.00;;;;;;5021153;28;20323;-66
2023/02/19 06:30:24;;;;;;;5.63;2.42;;;7.80;98.00;;;;;;5009420;28;20044;-66
2023/02/19 06:32:52;;;;;;;4.47;2.40;;;7.80;97.90;;;;;;5024919;28;20045;-65
2023/02/19 06:35:17;;;;;;;3.97;2.30;;;7.80;98.00;;;;;;5018245;28;20071;-67
2023/02/19 06:37:46;;;;;;;6.05;2.20;;;7.80;98.00;;;;;;5020318;28;22187;-65
2023/02/19 06:40:11;;;;;;;4.07;2.20;;;7.80;98.00;;;;;;5024768;28;20034;-65
2023/02/19 06:42:37;;;;;;;4.32;1.90;;;7.80;97.90;;;;;;5017033;28;20026;-66
2023/02/19 06:45:03;;;;;;;4.30;2.17;;;7.70;97.90;;;;;;5020901;28;20109;-64
2023/02/19 06:47:32;;;;;;;3.65;1.90;;;7.80;97.90;;;;;;5015565;28;20026;-65
2023/02/19 06:49:58;;;;;;;5.55;2.92;;;7.80;97.90;;;;;;5017397;28;20030;-66
2023/02/19 06:52:25;;;;;;;4.47;2.45;;;7.80;98.00;;;;;;5027452;28;20083;-64
2023/02/19 06:54:50;;;;;;;3.25;1.70;;;7.80;97.80;;;;;;5026398;28;20053;-66
2023/02/19 06:57:17;;;;;;;6.35;2.78;;;7.80;97.50;;;;;;5030874;28;20355;-66
2023/02/19 06:59:43;;;;;;;5.13;2.28;;;7.70;97.20;;;;;;5011406;28;20026;-66
2023/02/19 07:02:11;;;;;;;3.35;1.75;;;7.60;97.00;;;;;;5027396;28;20025;-65
2023/02/19 07:04:36;;;;;;;4.45;1.70;;;7.60;97.10;;;;;;5013416;28;20023;-65
2023/02/19 07:07:02;;;;;;;3.25;1.50;;;7.70;97.30;;;;;;5013764;28;20109;-65
2023/02/19 07:09:27;;;;;;;2.58;1.35;;;7.70;97.20;;;;;;5009712;28;20044;-66
2023/02/19 07:11:53;;;;;;;3.08;1.75;;;7.70;97.20;;;;;;5016702;28;20292;-65
2023/02/19 07:14:20;;;;;;;3.35;1.83;;;7.70;97.60;;;;;;5013116;28;20442;-65
2023/02/19 07:16:46;;;;;;;2.97;1.38;;;7.70;97.70;;;;;;5017365;28;20026;-66
2023/02/19 07:19:13;;;;;;;2.30;1.30;;;7.70;97.80;;;;;;5015007;28;20026;-66
2023/02/19 07:21:41;;;;;;;1.90;1.10;;;7.70;97.90;;;;;;5024383;28;20033;-65
2023/02/19 07:24:07;;;;;;;2.40;1.30;;;7.60;97.30;;;;;;5015261;28;20032;-66
2023/02/19 07:26:33;;;;;;;2.75;1.30;;;7.60;97.50;;;;;;5016138;28;20026;-66
2023/02/19 07:29:00;;;;;;;5.65;2.45;;;7.60;97.20;;;;;;5014309;28;20036;-65
2023/02/19 07:31:26;;;;;;;3.88;1.90;;;7.60;97.90;;;;;;5015091;28;20018;-67
2023/02/19 07:33:52;;;;;;;3.97;1.77;;;7.70;98.00;;;;;;5012688;28;20385;-66
2023/02/19 07:36:18;;;;;;;3.05;1.38;;;7.70;98.00;;;;;;5015655;28;20052;-63
2023/02/19 07:38:45;;;;;;;3.63;1.40;;;7.60;97.90;;;;;;5012594;28;20030;-63
2023/02/19 07:41:10;;;;;;;3.22;1.40;;;7.60;97.10;;;;;;5015089;28;20883;-66
2023/02/19 07:43:36;;;;;;;3.50;1.45;;;7.60;97.30;;;;;;5034890;28;20021;-65
2023/02/19 07:46:08;;;;;;;3.65;1.40;;;7.50;96.30;;;;;;5019846;28;20575;-66
2023/02/19 07:48:35;;;;;;;2.42;1.33;;;7.40;96.20;;;;;;5013363;28;20034;-65
2023/02/19 07:51:01;;;;;;;5.00;2.22;;;7.40;98.00;;;;;;5015587;28;20064;-64
2023/02/19 07:53:28;;;;;;;4.82;2.33;;;7.40;96.90;;;;;;5025570;28;20592;-66
2023/02/19 07:55:59;;;;;;;4.03;2.10;;;7.40;96.90;;;;;;5014522;28;20034;-65
2023/02/19 07:58:24;;;;;;;1.70;1.10;;;7.50;97.30;;;;;;5027864;28;20026;-65
2023/02/19 08:00:53;;;;;;;2.53;1.30;;;7.50;98.00;;;;;;5018171;28;20033;-65
2023/02/19 08:03:18;;;;;;;2.17;1.38;;;7.50;98.00;;;;;;5010089;28;20415;-66
2023/02/19 08:05:44;;;;;;;2.05;1.20;;;7.60;98.00;;;;;;5016547;28;20156;-65
2023/02/19 08:08:12;;;;;;;6.95;1.20;;;7.60;98.00;;;;;;5016611;28;20038;-66
2023/02/19 08:13:22;;;;;;;2.10;1.08;;;7.60;98.00;;;;;;5013107;28;20091;-67
2023/02/19 08:15:52;;;;;;;4.35;2.35;;;7.70;98.00;;;;;;5012642;28;20117;-66
2023/02/19 08:18:21;;;;;;;2.38;1.20;;;7.70;98.00;;;;;;5019235;28;20031;-65
2023/02/19 08:20:47;;;;;;;4.78;2.53;;;7.70;98.00;;;;;;5010925;28;20105;-66
2023/02/19 08:23:13;;;;;;;3.90;1.75;;;7.70;98.00;;;;;;5010193;28;20108;-65
2023/02/19 08:25:40;;;;;;;5.82;2.97;;;7.80;98.00;;;;;;5010141;28;20034;-65
2023/02/19 08:28:06;;;;;;;3.60;1.80;;;7.80;98.00;;;;;;5015336;28;20370;-66
2023/02/19 08:30:33;;;;;;;2.42;1.20;;;7.80;98.00;;;;;;5014638;28;20041;-66
2023/02/19 08:33:00;;;;;;;4.00;1.90;;;7.80;98.00;;;;;;5020838;28;20030;-67
2023/02/19 08:35:27;;;;;;;2.53;1.40;;;7.80;98.00;;;;;;5015650;28;20033;-66
2023/02/19 08:37:57;;;;;;;4.30;2.00;;;7.80;98.00;;;;;;5010484;28;20029;-65
2023/02/19 08:40:23;;;;;;;3.15;1.40;;;7.60;98.00;;;;;;5012834;28;20038;-65
2023/02/19 08:42:49;;;;;;;4.80;2.20;;;7.50;98.00;;;;;;5013886;28;20056;-64
2023/02/19 08:45:15;;;;;;;5.63;2.60;;;7.50;98.00;;;;;;5012504;28;20455;-65
2023/02/19 08:47:40;;;;;;;10.35;4.82;;;7.50;98.00;;;;;;5014018;28;20065;-65
2023/02/19 08:50:06;;;;;;;5.93;3.00;;;7.30;97.90;;;;;;5013231;28;20034;-65
2023/02/19 08:52:32;;;;;;;4.13;2.10;;;7.20;97.80;;;;;;5004899;28;20061;-66
2023/02/19 08:54:58;;;;;;;3.67;1.30;;;7.10;96.70;;;;;;4996018;28;20463;-66
2023/02/19 08:57:25;;;;;;;10.35;1.63;;;7.10;98.00;;;;;;4996366;28;20025;-66
2023/02/19 08:59:51;;;;;;;2.88;1.55;;;7.10;98.00;;;;;;5010235;28;20350;-66
2023/02/19 09:02:16;;;;;;;3.45;1.50;;;7.20;98.00;;;;;;5015725;28;20109;-66
2023/02/19 09:04:42;;;;;;;3.17;1.38;;;7.30;98.00;;;;;;5006518;28;20374;-65
2023/02/19 09:07:09;;;;;;;2.78;1.35;;;7.40;98.00;;;;;;4997692;28;20037;-65
2023/02/19 09:09:39;;;;;;;4.90;1.83;;;7.40;98.00;;;;;;4995067;28;20046;-66
2023/02/19 09:12:06;;;;;;;3.20;1.65;;;7.40;98.00;;;;;;5005254;28;20023;-66
2023/02/19 09:14:33;;;;;;;3.70;1.90;;;7.40;98.00;;;;;;5000768;28;20041;-66
2023/02/19 09:16:59;;;;;;;4.97;1.95;;;7.40;98.00;;;;;;5000766;28;20026;-66
2023/02/19 09:19:26;;;;;;;4.30;1.80;;;7.50;98.00;;;;;;5007537;28;20022;-66
2023/02/19 09:21:52;;;;;;;6.65;3.40;;;7.60;98.00;;;;;;5005518;28;20026;-66
2023/02/19 09:24:17;;;;;;;3.85;1.95;;;7.70;98.00;;;;;;5004936;28;20025;-65
2023/02/19 09:26:43;;;;;;;3.40;1.77;;;7.70;98.00;;;;;;4996967;28;20651;-66
2023/02/19 09:29:08;;;;;;;2.72;1.40;;;7.70;98.00;;;;;;4999050;28;20042;-66
2023/02/19 09:31:34;;;;;;;3.92;2.22;;;7.70;98.00;;;;;;5014796;28;20049;-67
2023/02/19 09:34:00;;;;;;;3.53;1.85;;;7.70;98.00;;;;;;4996994;28;20041;-66
2023/02/19 09:36:25;;;;;;;2.78;1.48;;;7.80;98.00;;;;;;5004041;28;20118;-66
2023/02/19 09:38:51;;;;;;;3.28;1.80;;;7.80;98.00;;;;;;4997364;28;20113;-65
2023/02/19 09:41:45;;;;;;;3.00;1.58;;;7.90;98.00;;;;;;5001686;28;20061;-66
2023/02/19 09:44:19;;;;;;;2.72;1.40;;;7.80;98.00;;;;;;5006858;28;20049;-68
2023/02/19 09:46:46;;;;;;;;;;;7.80;98.00;;;;;;5004848;28;20091;-68
2023/02/19 09:49:22;;;;;;;2.65;1.45;;;7.80;98.00;;;;;;5025548;28;19917;-67
2023/02/19 09:51:53;;;;;;;3.10;1.20;;;7.80;98.00;;;;;;5021162;28;20021;-67
2023/02/19 09:54:26;;;;;;;3.20;1.60;;;7.70;98.00;;;;;;5011275;28;20045;-67
2023/02/19 09:56:54;;;;;;;3.17;1.60;;;7.60;98.00;;;;;;5020223;28;20038;-66
2023/02/19 09:59:27;;;;;;;4.20;2.30;;;7.70;98.00;;;;;;5013312;28;20033;-66
2023/02/19 10:02:15;;;;;;;4.20;2.00;;;7.70;98.00;;;;;;5013045;28;20041;-66
2023/02/19 10:04:42;;;;;;;5.35;2.70;;;7.70;98.00;;;;;;5010421;28;20170;-67
2023/02/19 10:07:15;;;;;;;3.75;1.63;;;7.70;98.00;;;;;;4999508;28;20132;-67
2023/02/19 10:09:41;;;;;;;4.70;2.03;;;7.60;98.00;;;;;;5005828;28;20080;-66
2023/02/19 10:12:17;;;;;;;2.90;1.52;;;7.50;98.00;;;;;;5018301;28;20042;-66
2023/02/19 10:14:51;;;;;;;4.07;1.83;;;7.70;98.00;;;;;;5008052;28;20028;-67
2023/02/19 10:17:23;;;;;;;8.18;2.38;;;7.60;98.00;;;;;;5017592;28;20018;-66
2023/02/19 10:19:50;;;;;;;3.50;1.75;;;7.70;98.00;;;;;;5004798;28;20018;-67
2023/02/19 10:22:18;;;;;;;3.80;1.65;;;7.80;98.00;;;;;;5017406;28;20068;-67
2023/02/19 10:24:46;;;;;;;2.97;1.40;;;8.00;98.00;;;;;;5012044;28;20041;-66
2023/02/19 10:27:13;;;;;;;3.88;1.33;;;8.00;98.00;;;;;;5015861;28;20136;-66
2023/02/19 10:29:39;;;;;;;4.47;1.63;;;8.00;98.00;;;;;;5012855;28;20052;-66
2023/02/19 10:32:31;;;;;;;3.45;1.70;;;7.90;98.00;;;;;;5016672;28;20067;-66
2023/02/19 10:35:14;;;;;;;3.58;1.90;;;7.80;98.00;;;;;;5012732;28;20072;-67
2023/02/19 10:37:48;;;;;;;3.53;1.70;;;7.60;98.00;;;;;;5017000;28;20026;-66
2023/02/19 10:40:26;;;;;;;4.55;1.88;;;7.60;98.00;;;;;;5013477;28;20113;-66
2023/02/19 10:42:57;;;;;;;5.22;2.42;;;7.50;98.00;;;;;;5013167;28;20029;-66
2023/02/19 10:45:46;;;;;;;4.85;2.22;;;7.40;98.00;;;;;;5017126;28;20026;-66
2023/02/19 10:48:23;;;;;;;5.13;2.95;;;7.40;98.00;;;;;;5009537;28;20343;-66
2023/02/19 10:50:56;;;;;;;6.90;4.40;;;7.60;98.00;;;;;;5014758;28;20331;-66
2023/02/19 10:53:34;;;;;;;3.60;2.10;;;7.70;98.00;;;;;;5015164;28;20026;-66
2023/02/19 10:56:08;;;;;;;5.32;3.00;;;7.90;98.00;;;;;;5017299;28;20180;-67
2023/02/19 10:58:39;;;;;;;5.80;2.72;;;8.40;98.00;;;;;;5009856;28;20030;-64
2023/02/19 11:01:19;;;;;;;9.75;5.55;;;8.60;98.00;;;;;;5014347;28;20022;-67
2023/02/19 11:03:50;;;;;;;12.60;4.97;;;8.50;98.00;;;;;;5015941;28;20041;-66
2023/02/19 11:06:19;;;;;;;9.77;5.30;;;8.40;98.00;;;;;;5007236;28;20430;-66
2023/02/19 11:09:00;;;;;;;12.05;6.20;;;8.20;98.00;;;;;;5011873;28;20045;-66
2023/02/19 11:11:36;;;;;;;14.70;7.50;;;8.00;98.00;;;;;;5014046;28;20044;-66
2023/02/19 11:14:17;;;;;;;5.03;2.80;;;7.90;98.00;;;;;;5015064;28;20029;-67
2023/02/19 11:16:45;;;;;;;4.80;2.40;;;7.80;98.00;;;;;;5012499;28;20069;-67
2023/02/19 11:19:41;;;;;;;5.13;2.72;;;7.70;98.00;;;;;;5013833;28;20018;-66
2023/02/19 11:22:32;;;;;;;9.27;2.30;;;7.50;97.90;;;;;;5016678;28;20105;-66
2023/02/19 11:25:09;;;;;;;7.80;3.03;;;7.50;98.00;;;;;;5015008;28;20025;-66
2023/02/19 11:27:35;;;;;;;4.22;2.00;;;7.60;98.00;;;;;;5015353;28;20041;-66
2023/02/19 11:30:37;;;;;;;4.43;2.38;;;7.70;98.00;;;;;;5006542;28;20018;-65
2023/02/19 11:33:14;;;;;;;3.85;2.20;;;8.00;98.00;;;;;;5028205;28;20030;-65
2023/02/19 11:35:41;;;;;;;5.63;2.65;;;8.30;98.00;;;;;;5015412;28;20109;-66
2023/02/19 11:38:10;;;;;;;5.40;2.50;;;8.50;98.00;;;;;;5014415;28;20022;-66
2023/02/19 11:40:40;;;;;;;4.28;1.95;;;8.70;98.00;;;;;;5011605;28;20025;-65
2023/02/19 11:43:38;;;;;;;6.40;2.70;;;8.70;97.80;;;;;;5009748;28;20024;-65
2023/02/19 11:46:48;;;;;;;7.18;3.80;;;8.90;97.60;;;;;;5017899;28;20036;-66
2023/02/19 11:49:37;;;;;;;5.63;1.80;;;9.00;97.20;;;;;;5012996;28;20128;-67
2023/02/19 11:52:33;;;;;;;6.93;2.30;;;9.00;96.90;;;;;;5014930;28;20451;-65
2023/02/19 11:55:02;;;;;;;4.25;1.98;;;8.70;97.50;;;;;;5016370;28;20041;-66
2023/02/19 11:57:41;;;;;;;6.25;2.90;;;8.40;97.80;;;;;;5013833;28;20022;-65
2023/02/19 12:00:15;;;;;;;15.52;6.43;;;8.30;97.60;;;;;;5010269;28;20026;-65
2023/02/19 12:02:53;;;;;;;21.85;9.23;;;8.30;97.80;;;;;;5005657;28;20038;-65
2023/02/19 12:05:48;;;;;;;7.28;3.42;;;8.30;97.80;;;;;;5015095;28;20030;-64
2023/02/19 12:08:48;;;;;;;5.90;3.10;;;8.30;97.50;;;;;;5022836;28;20064;-64
2023/02/19 12:11:45;;;;;;;7.18;2.83;;;8.20;97.70;;;;;;5012354;28;20445;-64
2023/02/19 12:14:47;;;;;;;6.88;3.38;;;8.00;97.90;;;;;;5000472;28;20048;-65
2023/02/19 12:17:39;;;;;;;8.45;3.47;;;7.90;98.00;;;;;;5013695;28;20061;-66
2023/02/19 12:20:16;;;;;;;4.85;2.40;;;8.00;98.00;;;;;;5003377;28;20081;-66
2023/02/19 12:23:32;;;;;;;8.15;3.70;;;7.90;98.00;;;;;;5015985;28;20058;-66
2023/02/19 12:26:12;;;;;;;8.77;5.25;;;7.70;98.00;;;;;;5004261;28;20335;-66
2023/02/19 12:28:46;;;;;;;13.35;5.70;;;7.50;97.30;;;;;;5015018;28;20022;-66
2023/02/19 12:31:33;;;;;;;6.53;3.67;;;7.50;97.00;;;;;;5013470;28;20040;-67
2023/02/19 12:34:29;;;;;;;8.90;3.67;;;7.60;98.00;;;;;;5000566;28;20034;-67
2023/02/19 12:37:31;;;;;;;10.32;3.53;;;7.70;96.00;;;;;;5019980;28;20034;-66
2023/02/19 12:40:12;;;;;;;5.72;3.10;;;7.70;97.70;;;;;;5000168;28;20524;-67
2023/02/19 12:43:25;;;;;;;6.28;3.78;;;7.70;98.00;;;;;;5015223;28;20026;-66
2023/02/19 12:46:10;;;;;;;9.18;4.70;;;7.70;98.00;;;;;;5012650;28;20049;-67
2023/02/19 12:48:46;;;;;;;7.25;3.65;;;7.80;98.00;;;;;;4999531;28;20022;-66
2023/02/19 12:51:36;;;;;;;8.65;2.30;;;7.90;98.00;;;;;;4996844;28;20871;-66
2023/02/19 12:54:11;;;;;;;6.05;1.98;;;8.00;98.00;;;;;;5000048;28;20785;-66
2023/02/19 12:56:57;;;;;;;6.47;2.35;;;8.10;98.00;;;;;;4998677;28;20366;-66
2023/02/19 12:59:39;;;;;;;7.18;2.30;;;8.30;98.00;;;;;;5003800;28;20426;-66
2023/02/19 13:02:33;;;;;;;6.63;2.30;;;8.60;98.00;;;;;;5008626;28;20116;-67
2023/02/19 13:05:19;;;;;;;7.03;2.10;;;9.00;98.00;;;;;;5011595;28;20029;-66
2023/02/19 13:08:06;;;;;;;4.60;1.80;;;9.40;97.30;;;;;;5028113;28;20068;-67
2023/02/19 13:10:41;;;;;;;5.38;2.03;;;9.50;97.20;;;;;;5005812;28;20033;-66
2023/02/19 13:13:16;;;;;;;5.63;2.40;;;9.50;96.70;;;;;;5005516;28;20026;-66
2023/02/19 13:15:47;;;;;;;7.63;2.33;;;9.40;97.00;;;;;;5003705;28;20029;-67
2023/02/19 13:18:28;;;;;;;4.15;1.60;;;9.60;96.90;;;;;;4999011;28;20026;-68
2023/02/19 13:20:56;;;;;;;5.88;1.80;;;9.60;96.50;;;;;;5001988;28;20489;-66
2023/02/19 13:26:48;;;;;;;4.25;1.80;;;9.30;96.80;;;;;;5007973;28;20044;-67
2023/02/19 13:29:13;;;;;;;6.27;2.27;;;9.20;97.40;;;;;;5015864;28;20104;-67
2023/02/19 13:32:11;;;;;;;5.60;2.25;;;9.10;97.40;;;;;;5022317;28;20629;-66
2023/02/19 13:34:55;;;;;;;6.28;2.15;;;9.10;97.70;;;;;;5011548;28;20049;-66
2023/02/19 13:37:22;;;;;;;4.88;2.47;;;9.30;97.50;;;;;;5012566;28;20702;-67
2023/02/19 13:39:49;;;;;;;4.15;1.92;;;9.50;96.80;;;;;;5008094;28;20030;-65
2023/02/19 13:42:26;;;;;;;8.45;2.50;;;9.40;96.60;;;;;;5051328;28;20441;-65
2023/02/19 13:44:54;;;;;;;5.22;2.22;;;9.10;97.30;;;;;;5013835;28;20056;-64
2023/02/19 13:47:58;;;;;;;5.68;1.95;;;9.00;97.30;;;;;;5016736;28;20442;-64
2023/02/19 13:50:31;;;;;;;9.27;4.60;;;8.90;97.50;;;;;;5018079;28;20053;-64
2023/02/19 13:52:58;;;;;;;7.88;3.50;;;8.70;97.70;;;;;;5012521;28;20328;-64